sensor_id;sensor_type;location;lat;lon;timestamp;P1;durP1;ratioP1;P2;durP2;ratioP2
42144;SDS011;27813;43.516;11.890;2023-05-07T04:35:19;2.53;;;1.63;;
42144;SDS011;27813;43.516;11.890;2023-05-07T04:39:24;4.40;;;2.10;;
42144;SDS011;27813;43.516;11.890;2023-05-07T04:43:29;2.80;;;1.80;;
42144;SDS011;27813;43.516;11.890;2023-05-07T04:47:34;3.17;;;1.90;;
42144;SDS011;27813;43.516;11.890;2023-05-07T04:51:39;2.67;;;1.88;;
42144;SDS011;27813;43.516;11.890;2023-05-07T04:55:49;2.85;;;1.75;;
42144;SDS011;27813;43.516;11.890;2023-05-07T05:00:05;2.15;;;1.88;;
42144;SDS011;27813;43.516;11.890;2023-05-07T05:04:16;3.10;;;1.75;;
42144;SDS011;27813;43.516;11.890;2023-05-07T05:08:20;2.58;;;1.80;;
42144;SDS011;27813;43.516;11.890;2023-05-07T05:16:29;2.87;;;1.60;;
42144;SDS011;27813;43.516;11.890;2023-05-07T05:20:33;4.25;;;1.77;;
42144;SDS011;27813;43.516;11.890;2023-05-07T05:24:38;2.08;;;1.55;;
42144;SDS011;27813;43.516;11.890;2023-05-07T05:28:43;2.05;;;1.63;;
42144;SDS011;27813;43.516;11.890;2023-05-07T05:32:49;2.38;;;1.65;;
42144;SDS011;27813;43.516;11.890;2023-05-07T05:36:55;2.38;;;1.50;;
42144;SDS011;27813;43.516;11.890;2023-05-07T05:41:00;4.20;;;1.30;;
42144;SDS011;27813;43.516;11.890;2023-05-07T05:45:05;2.28;;;1.45;;
42144;SDS011;27813;43.516;11.890;2023-05-07T05:49:10;1.95;;;1.45;;
42144;SDS011;27813;43.516;11.890;2023-05-07T05:53:15;2.42;;;1.40;;
42144;SDS011;27813;43.516;11.890;2023-05-07T05:57:20;1.65;;;1.30;;
42144;SDS011;27813;43.516;11.890;2023-05-07T06:01:25;3.25;;;1.42;;
42144;SDS011;27813;43.516;11.890;2023-05-07T06:05:32;2.45;;;1.65;;
42144;SDS011;27813;43.516;11.890;2023-05-07T06:09:37;2.40;;;1.70;;
42144;SDS011;27813;43.516;11.890;2023-05-07T06:13:41;2.33;;;1.65;;
42144;SDS011;27813;43.516;11.890;2023-05-07T06:17:46;1.88;;;1.45;;
42144;SDS011;27813;43.516;11.890;2023-05-07T06:21:52;1.90;;;1.70;;
42144;SDS011;27813;43.516;11.890;2023-05-07T06:25:58;3.05;;;2.50;;
42144;SDS011;27813;43.516;11.890;2023-05-07T06:30:08;3.38;;;2.03;;
42144;SDS011;27813;43.516;11.890;2023-05-07T06:34:13;3.45;;;1.63;;
42144;SDS011;27813;43.516;11.890;2023-05-07T06:38:18;2.78;;;1.20;;
42144;SDS011;27813;43.516;11.890;2023-05-07T06:42:24;2.55;;;1.60;;
42144;SDS011;27813;43.516;11.890;2023-05-07T06:46:33;4.43;;;2.13;;
42144;SDS011;27813;43.516;11.890;2023-05-07T06:50:39;3.33;;;2.40;;
42144;SDS011;27813;43.516;11.890;2023-05-07T06:54:46;4.00;;;2.78;;
42144;SDS011;27813;43.516;11.890;2023-05-07T06:58:52;5.07;;;2.40;;
42144;SDS011;27813;43.516;11.890;2023-05-07T07:02:57;2.60;;;1.90;;
42144;SDS011;27813;43.516;11.890;2023-05-07T07:07:04;2.63;;;1.90;;
42144;SDS011;27813;43.516;11.890;2023-05-07T07:11:10;2.40;;;1.67;;
42144;SDS011;27813;43.516;11.890;2023-05-07T07:15:15;3.50;;;1.77;;
42144;SDS011;27813;43.516;11.890;2023-05-07T07:19:20;1.73;;;1.27;;
42144;SDS011;27813;43.516;11.890;2023-05-07T07:23:28;1.88;;;1.40;;
42144;SDS011;27813;43.516;11.890;2023-05-07T07:27:32;4.07;;;1.65;;
42144;SDS011;27813;43.516;11.890;2023-05-07T07:31:37;2.30;;;1.55;;
42144;SDS011;27813;43.516;11.890;2023-05-07T07:35:42;2.42;;;1.38;;
42144;SDS011;27813;43.516;11.890;2023-05-07T07:39:47;2.85;;;1.67;;
42144;SDS011;27813;43.516;11.890;2023-05-07T07:43:51;1.23;;;0.93;;
42144;SDS011;27813;43.516;11.890;2023-05-07T07:47:57;2.17;;;1.40;;
42144;SDS011;27813;43.516;11.890;2023-05-07T07:52:02;2.53;;;1.50;;
42144;SDS011;27813;43.516;11.890;2023-05-07T07:56:08;2.55;;;1.13;;
42144;SDS011;27813;43.516;11.890;2023-05-07T08:00:13;3.80;;;1.40;;
42144;SDS011;27813;43.516;11.890;2023-05-07T08:04:26;2.85;;;1.67;;
42144;SDS011;27813;43.516;11.890;2023-05-07T08:08:32;2.90;;;1.88;;
42144;SDS011;27813;43.516;11.890;2023-05-07T08:12:37;4.07;;;2.13;;
42144;SDS011;27813;43.516;11.890;2023-05-07T08:16:41;2.78;;;1.98;;
42144;SDS011;27813;43.516;11.890;2023-05-07T08:20:46;2.53;;;1.80;;
42144;SDS011;27813;43.516;11.890;2023-05-07T08:24:55;2.70;;;1.55;;
42144;SDS011;27813;43.516;11.890;2023-05-07T08:29:00;3.33;;;1.75;;
42144;SDS011;27813;43.516;11.890;2023-05-07T08:33:04;2.47;;;1.30;;
42144;SDS011;27813;43.516;11.890;2023-05-07T08:37:09;2.85;;;1.48;;
42144;SDS011;27813;43.516;11.890;2023-05-07T08:41:13;3.78;;;1.92;;
42144;SDS011;27813;43.516;11.890;2023-05-07T08:45:21;3.70;;;2.10;;
42144;SDS011;27813;43.516;11.890;2023-05-07T08:49:27;5.78;;;2.10;;
42144;SDS011;27813;43.516;11.890;2023-05-07T08:53:32;2.60;;;1.58;;
42144;SDS011;27813;43.516;11.890;2023-05-07T08:57:37;2.33;;;1.52;;
42144;SDS011;27813;43.516;11.890;2023-05-07T09:01:44;2.47;;;1.70;;
42144;SDS011;27813;43.516;11.890;2023-05-07T09:05:49;2.78;;;1.73;;
42144;SDS011;27813;43.516;11.890;2023-05-07T09:09:55;2.90;;;2.03;;
42144;SDS011;27813;43.516;11.890;2023-05-07T09:14:01;3.25;;;1.85;;
42144;SDS011;27813;43.516;11.890;2023-05-07T09:18:14;2.97;;;1.70;;
42144;SDS011;27813;43.516;11.890;2023-05-07T09:22:21;4.63;;;1.95;;
42144;SDS011;27813;43.516;11.890;2023-05-07T09:26:34;3.90;;;2.17;;
42144;SDS011;27813;43.516;11.890;2023-05-07T09:30:40;1.73;;;1.38;;
42144;SDS011;27813;43.516;11.890;2023-05-07T09:34:48;2.50;;;1.50;;
42144;SDS011;27813;43.516;11.890;2023-05-07T09:38:55;2.80;;;1.38;;
42144;SDS011;27813;43.516;11.890;2023-05-07T09:43:12;2.08;;;1.17;;
42144;SDS011;27813;43.516;11.890;2023-05-07T09:47:24;1.63;;;1.10;;
42144;SDS011;27813;43.516;11.890;2023-05-07T09:51:30;2.33;;;1.20;;
42144;SDS011;27813;43.516;11.890;2023-05-07T09:55:51;2.30;;;0.90;;
42144;SDS011;27813;43.516;11.890;2023-05-07T09:59:56;3.13;;;1.20;;
42144;SDS011;27813;43.516;11.890;2023-05-07T10:04:07;2.50;;;1.52;;
42144;SDS011;27813;43.516;11.890;2023-05-07T10:08:12;2.67;;;1.20;;
42144;SDS011;27813;43.516;11.890;2023-05-07T10:12:23;1.88;;;1.05;;
42144;SDS011;27813;43.516;11.890;2023-05-07T10:16:31;1.63;;;0.93;;
42144;SDS011;27813;43.516;11.890;2023-05-07T10:20:45;2.25;;;0.80;;
42144;SDS011;27813;43.516;11.890;2023-05-07T10:24:52;2.92;;;1.20;;
42144;SDS011;27813;43.516;11.890;2023-05-07T10:29:12;1.70;;;0.93;;
42144;SDS011;27813;43.516;11.890;2023-05-07T10:33:23;4.40;;;0.90;;
42144;SDS011;27813;43.516;11.890;2023-05-07T10:37:33;1.63;;;0.90;;
42144;SDS011;27813;43.516;11.890;2023-05-07T10:41:38;1.42;;;0.90;;
42144;SDS011;27813;43.516;11.890;2023-05-07T10:46:08;1.35;;;0.88;;
42144;SDS011;27813;43.516;11.890;2023-05-07T10:50:24;1.60;;;1.08;;
42144;SDS011;27813;43.516;11.890;2023-05-07T10:54:35;2.92;;;1.00;;
42144;SDS011;27813;43.516;11.890;2023-05-07T10:58:44;3.33;;;1.42;;
42144;SDS011;27813;43.516;11.890;2023-05-07T11:07:18;1.85;;;1.20;;
42144;SDS011;27813;43.516;11.890;2023-05-07T11:11:47;1.35;;;1.00;;
42144;SDS011;27813;43.516;11.890;2023-05-07T11:16:03;1.77;;;1.30;;
42144;SDS011;27813;43.516;11.890;2023-05-07T11:20:14;2.17;;;1.25;;
42144;SDS011;27813;43.516;11.890;2023-05-07T11:24:28;1.83;;;1.38;;
42144;SDS011;27813;43.516;11.890;2023-05-07T11:28:40;1.80;;;1.10;;
42144;SDS011;27813;43.516;11.890;2023-05-07T11:32:47;1.80;;;1.17;;
42144;SDS011;27813;43.516;11.890;2023-05-07T11:36:53;2.13;;;1.17;;
42144;SDS011;27813;43.516;11.890;2023-05-07T11:41:12;1.88;;;1.30;;
42144;SDS011;27813;43.516;11.890;2023-05-07T11:45:22;2.47;;;1.17;;
42144;SDS011;27813;43.516;11.890;2023-05-07T11:49:29;3.35;;;1.40;;
42144;SDS011;27813;43.516;11.890;2023-05-07T11:53:41;1.98;;;1.20;;
42144;SDS011;27813;43.516;11.890;2023-05-07T11:57:46;1.92;;;1.17;;
42144;SDS011;27813;43.516;11.890;2023-05-07T12:01:50;1.20;;;0.90;;
42144;SDS011;27813;43.516;11.890;2023-05-07T12:05:55;2.88;;;1.10;;
42144;SDS011;27813;43.516;11.890;2023-05-07T12:10:04;2.05;;;1.10;;
42144;SDS011;27813;43.516;11.890;2023-05-07T12:14:10;2.85;;;1.30;;
42144;SDS011;27813;43.516;11.890;2023-05-07T12:18:14;1.27;;;0.90;;
42144;SDS011;27813;43.516;11.890;2023-05-07T12:22:19;1.35;;;0.90;;
42144;SDS011;27813;43.516;11.890;2023-05-07T12:26:24;1.05;;;0.80;;
42144;SDS011;27813;43.516;11.890;2023-05-07T12:30:29;1.48;;;1.00;;
42144;SDS011;27813;43.516;11.890;2023-05-07T12:34:33;3.22;;;1.35;;
42144;SDS011;27813;43.516;11.890;2023-05-07T12:38:38;2.13;;;0.90;;
42144;SDS011;27813;43.516;11.890;2023-05-07T12:42:44;1.63;;;0.70;;
42144;SDS011;27813;43.516;11.890;2023-05-07T12:46:48;1.15;;;0.70;;
42144;SDS011;27813;43.516;11.890;2023-05-07T12:50:54;1.80;;;0.80;;
42144;SDS011;27813;43.516;11.890;2023-05-07T12:55:08;1.58;;;1.00;;
42144;SDS011;27813;43.516;11.890;2023-05-07T12:59:16;1.20;;;0.93;;
42144;SDS011;27813;43.516;11.890;2023-05-07T13:03:22;1.02;;;0.68;;
42144;SDS011;27813;43.516;11.890;2023-05-07T13:07:28;1.33;;;0.80;;
42144;SDS011;27813;43.516;11.890;2023-05-07T13:11:35;3.72;;;0.70;;
42144;SDS011;27813;43.516;11.890;2023-05-07T13:15:40;1.42;;;0.88;;
42144;SDS011;27813;43.516;11.890;2023-05-07T13:19:45;1.48;;;0.80;;
42144;SDS011;27813;43.516;11.890;2023-05-07T13:23:49;0.85;;;0.63;;
42144;SDS011;27813;43.516;11.890;2023-05-07T13:27:56;3.40;;;0.80;;
42144;SDS011;27813;43.516;11.890;2023-05-07T13:32:12;2.05;;;0.70;;
42144;SDS011;27813;43.516;11.890;2023-05-07T13:36:17;0.90;;;0.70;;
42144;SDS011;27813;43.516;11.890;2023-05-07T13:40:22;1.08;;;0.82;;
42144;SDS011;27813;43.516;11.890;2023-05-07T13:44:27;1.00;;;0.68;;
42144;SDS011;27813;43.516;11.890;2023-05-07T13:48:32;1.30;;;0.80;;
42144;SDS011;27813;43.516;11.890;2023-05-07T13:52:37;0.93;;;0.70;;
42144;SDS011;27813;43.516;11.890;2023-05-07T13:56:43;1.17;;;0.90;;
42144;SDS011;27813;43.516;11.890;2023-05-07T14:00:49;1.30;;;0.80;;
42144;SDS011;27813;43.516;11.890;2023-05-07T14:04:54;0.80;;;0.70;;
42144;SDS011;27813;43.516;11.890;2023-05-07T14:08:58;1.38;;;0.95;;
42144;SDS011;27813;43.516;11.890;2023-05-07T14:13:03;1.60;;;0.90;;
42144;SDS011;27813;43.516;11.890;2023-05-07T14:17:08;1.90;;;0.90;;
42144;SDS011;27813;43.516;11.890;2023-05-07T14:21:13;1.38;;;0.70;;
42144;SDS011;27813;43.516;11.890;2023-05-07T14:25:18;1.92;;;0.80;;
42144;SDS011;27813;43.516;11.890;2023-05-07T14:29:26;1.55;;;0.90;;
42144;SDS011;27813;43.516;11.890;2023-05-07T14:33:31;2.42;;;0.90;;
42144;SDS011;27813;43.516;11.890;2023-05-07T14:37:36;1.58;;;0.85;;
42144;SDS011;27813;43.516;11.890;2023-05-07T14:41:42;1.17;;;0.85;;
42144;SDS011;27813;43.516;11.890;2023-05-07T14:45:46;2.75;;;1.15;;
42144;SDS011;27813;43.516;11.890;2023-05-07T14:49:51;1.30;;;0.80;;
42144;SDS011;27813;43.516;11.890;2023-05-07T14:53:56;1.80;;;0.75;;
42144;SDS011;27813;43.516;11.890;2023-05-07T14:58:01;1.52;;;0.82;;
42144;SDS011;27813;43.516;11.890;2023-05-07T15:02:12;1.83;;;1.08;;
42144;SDS011;27813;43.516;11.890;2023-05-07T15:06:19;1.40;;;0.82;;
42144;SDS011;27813;43.516;11.890;2023-05-07T15:10:25;1.25;;;0.80;;
42144;SDS011;27813;43.516;11.890;2023-05-07T15:14:29;2.22;;;0.90;;
42144;SDS011;27813;43.516;11.890;2023-05-07T15:18:34;2.58;;;0.90;;
42144;SDS011;27813;43.516;11.890;2023-05-07T15:22:38;1.38;;;0.95;;
42144;SDS011;27813;43.516;11.890;2023-05-07T15:26:44;1.52;;;0.93;;
42144;SDS011;27813;43.516;11.890;2023-05-07T15:30:49;1.33;;;0.88;;
42144;SDS011;27813;43.516;11.890;2023-05-07T15:34:56;1.45;;;0.90;;
42144;SDS011;27813;43.516;11.890;2023-05-07T15:39:01;3.00;;;1.00;;
42144;SDS011;27813;43.516;11.890;2023-05-07T15:43:07;1.50;;;0.90;;
42144;SDS011;27813;43.516;11.890;2023-05-07T15:47:13;1.17;;;0.88;;
42144;SDS011;27813;43.516;11.890;2023-05-07T15:51:18;4.18;;;1.02;;
42144;SDS011;27813;43.516;11.890;2023-05-07T15:55:23;1.60;;;0.93;;
42144;SDS011;27813;43.516;11.890;2023-05-07T15:59:28;2.10;;;1.05;;
42144;SDS011;27813;43.516;11.890;2023-05-07T16:03:32;2.08;;;1.20;;
42144;SDS011;27813;43.516;11.890;2023-05-07T16:07:37;0.95;;;0.80;;
42144;SDS011;27813;43.516;11.890;2023-05-07T16:11:43;1.40;;;1.00;;
42144;SDS011;27813;43.516;11.890;2023-05-07T16:15:48;1.30;;;1.00;;
42144;SDS011;27813;43.516;11.890;2023-05-07T16:19:53;1.20;;;0.80;;
42144;SDS011;27813;43.516;11.890;2023-05-07T16:23:57;1.65;;;0.90;;
42144;SDS011;27813;43.516;11.890;2023-05-07T16:28:02;2.38;;;1.20;;
42144;SDS011;27813;43.516;11.890;2023-05-07T16:32:07;1.65;;;1.00;;
42144;SDS011;27813;43.516;11.890;2023-05-07T16:36:13;1.48;;;0.88;;
42144;SDS011;27813;43.516;11.890;2023-05-07T16:40:17;2.03;;;1.35;;
42144;SDS011;27813;43.516;11.890;2023-05-07T16:44:22;1.75;;;0.90;;
42144;SDS011;27813;43.516;11.890;2023-05-07T16:48:27;1.60;;;1.00;;
42144;SDS011;27813;43.516;11.890;2023-05-07T16:52:32;2.55;;;1.00;;
42144;SDS011;27813;43.516;11.890;2023-05-07T16:56:37;4.60;;;1.00;;
42144;SDS011;27813;43.516;11.890;2023-05-07T17:00:41;3.30;;;1.02;;
42144;SDS011;27813;43.516;11.890;2023-05-07T17:04:53;6.47;;;1.92;;
42144;SDS011;27813;43.516;11.890;2023-05-07T17:08:58;3.25;;;1.70;;
42144;SDS011;27813;43.516;11.890;2023-05-07T17:13:03;3.90;;;1.30;;
42144;SDS011;27813;43.516;11.890;2023-05-07T17:17:08;2.95;;;1.50;;
42144;SDS011;27813;43.516;11.890;2023-05-07T17:21:12;1.88;;;1.30;;
42144;SDS011;27813;43.516;11.890;2023-05-07T17:25:18;2.90;;;1.33;;
42144;SDS011;27813;43.516;11.890;2023-05-07T17:29:23;1.70;;;1.30;;
42144;SDS011;27813;43.516;11.890;2023-05-07T17:33:28;2.20;;;0.90;;
42144;SDS011;27813;43.516;11.890;2023-05-07T17:37:33;1.67;;;1.10;;
42144;SDS011;27813;43.516;11.890;2023-05-07T17:41:38;3.28;;;1.35;;
42144;SDS011;27813;43.516;11.890;2023-05-07T17:45:43;2.72;;;1.00;;
42144;SDS011;27813;43.516;11.890;2023-05-07T17:49:48;1.67;;;1.08;;
42144;SDS011;27813;43.516;11.890;2023-05-07T17:53:54;2.05;;;0.90;;
42144;SDS011;27813;43.516;11.890;2023-05-07T17:57:59;4.13;;;1.25;;
42144;SDS011;27813;43.516;11.890;2023-05-07T18:02:05;1.80;;;1.00;;
42144;SDS011;27813;43.516;11.890;2023-05-07T18:06:09;2.08;;;1.23;;
42144;SDS011;27813;43.516;11.890;2023-05-07T18:10:20;3.38;;;1.20;;
42144;SDS011;27813;43.516;11.890;2023-05-07T18:14:25;1.55;;;1.20;;
42144;SDS011;27813;43.516;11.890;2023-05-07T18:18:29;2.30;;;1.13;;
42144;SDS011;27813;43.516;11.890;2023-05-07T18:22:34;1.88;;;1.30;;
42144;SDS011;27813;43.516;11.890;2023-05-07T18:26:39;3.65;;;1.27;;
42144;SDS011;27813;43.516;11.890;2023-05-07T18:30:44;2.35;;;1.25;;
42144;SDS011;27813;43.516;11.890;2023-05-07T18:34:48;1.90;;;1.30;;
42144;SDS011;27813;43.516;11.890;2023-05-07T18:38:52;1.40;;;1.00;;
42144;SDS011;27813;43.516;11.890;2023-05-07T18:42:58;2.00;;;1.10;;
42144;SDS011;27813;43.516;11.890;2023-05-07T18:47:09;1.80;;;1.30;;
42144;SDS011;27813;43.516;11.890;2023-05-07T18:51:13;2.45;;;1.20;;
42144;SDS011;27813;43.516;11.890;2023-05-07T18:55:18;2.53;;;1.20;;
42144;SDS011;27813;43.516;11.890;2023-05-07T18:59:28;3.28;;;1.45;;
42144;SDS011;27813;43.516;11.890;2023-05-07T19:03:33;2.17;;;1.40;;
42144;SDS011;27813;43.516;11.890;2023-05-07T19:07:38;3.92;;;1.70;;
42144;SDS011;27813;43.516;11.890;2023-05-07T19:11:42;3.47;;;1.95;;
42144;SDS011;27813;43.516;11.890;2023-05-07T19:15:48;8.60;;;3.03;;
42144;SDS011;27813;43.516;11.890;2023-05-07T19:19:52;4.30;;;2.22;;
42144;SDS011;27813;43.516;11.890;2023-05-07T19:23:59;3.17;;;1.85;;
42144;SDS011;27813;43.516;11.890;2023-05-07T19:28:03;3.45;;;2.05;;
42144;SDS011;27813;43.516;11.890;2023-05-07T19:32:09;3.03;;;2.03;;
42144;SDS011;27813;43.516;11.890;2023-05-07T19:36:13;3.22;;;1.90;;
42144;SDS011;27813;43.516;11.890;2023-05-07T19:40:19;3.15;;;1.95;;
42144;SDS011;27813;43.516;11.890;2023-05-07T19:44:24;5.75;;;2.15;;
42144;SDS011;27813;43.516;11.890;2023-05-07T19:48:29;3.22;;;2.10;;
42144;SDS011;27813;43.516;11.890;2023-05-07T19:52:33;5.30;;;1.73;;
42144;SDS011;27813;43.516;11.890;2023-05-07T19:56:39;2.53;;;1.80;;
42144;SDS011;27813;43.516;11.890;2023-05-07T20:00:44;2.92;;;1.85;;
42144;SDS011;27813;43.516;11.890;2023-05-07T20:04:50;2.35;;;1.45;;
42144;SDS011;27813;43.516;11.890;2023-05-07T20:08:55;3.03;;;2.08;;
42144;SDS011;27813;43.516;11.890;2023-05-07T20:13:00;2.58;;;1.67;;
42144;SDS011;27813;43.516;11.890;2023-05-07T20:17:05;4.05;;;1.40;;
42144;SDS011;27813;43.516;11.890;2023-05-07T20:21:10;6.28;;;3.67;;
42144;SDS011;27813;43.516;11.890;2023-05-07T20:25:17;3.85;;;2.55;;
42144;SDS011;27813;43.516;11.890;2023-05-07T20:29:22;3.38;;;1.65;;
42144;SDS011;27813;43.516;11.890;2023-05-07T20:33:26;3.13;;;1.35;;
42144;SDS011;27813;43.516;11.890;2023-05-07T20:37:32;3.10;;;1.80;;
42144;SDS011;27813;43.516;11.890;2023-05-07T20:41:42;2.45;;;1.40;;
42144;SDS011;27813;43.516;11.890;2023-05-07T20:45:46;2.25;;;1.35;;
42144;SDS011;27813;43.516;11.890;2023-05-07T20:50:01;1.90;;;1.40;;
42144;SDS011;27813;43.516;11.890;2023-05-07T20:54:07;4.95;;;1.38;;
42144;SDS011;27813;43.516;11.890;2023-05-07T21:03:48;2.05;;;1.42;;
42144;SDS011;27813;43.516;11.890;2023-05-07T21:07:56;2.60;;;1.67;;
42144;SDS011;27813;43.516;11.890;2023-05-07T21:12:01;3.22;;;1.52;;
42144;SDS011;27813;43.516;11.890;2023-05-07T21:16:08;2.70;;;1.90;;
42144;SDS011;27813;43.516;11.890;2023-05-07T21:20:12;2.50;;;1.60;;
42144;SDS011;27813;43.516;11.890;2023-05-07T21:24:18;3.20;;;2.22;;
42144;SDS011;27813;43.516;11.890;2023-05-07T21:28:22;1.67;;;1.23;;
42144;SDS011;27813;43.516;11.890;2023-05-07T21:32:27;1.65;;;1.33;;
42144;SDS011;27813;43.516;11.890;2023-05-07T21:36:32;2.67;;;1.58;;
42144;SDS011;27813;43.516;11.890;2023-05-07T21:40:37;2.90;;;1.95;;
42144;SDS011;27813;43.516;11.890;2023-05-07T21:48:49;2.13;;;1.55;;
42144;SDS011;27813;43.516;11.890;2023-05-07T21:52:53;1.70;;;1.25;;
42144;SDS011;27813;43.516;11.890;2023-05-07T21:56:58;1.50;;;1.17;;
42144;SDS011;27813;43.516;11.890;2023-05-07T22:01:03;2.53;;;1.50;;
42144;SDS011;27813;43.516;11.890;2023-05-07T22:05:08;2.45;;;1.17;;
42144;SDS011;27813;43.516;11.890;2023-05-07T22:09:13;1.83;;;1.23;;
42144;SDS011;27813;43.516;11.890;2023-05-07T22:13:17;2.67;;;1.20;;
42144;SDS011;27813;43.516;11.890;2023-05-07T22:17:22;2.75;;;1.40;;
42144;SDS011;27813;43.516;11.890;2023-05-07T22:21:28;3.42;;;1.60;;
42144;SDS011;27813;43.516;11.890;2023-05-07T22:25:32;2.45;;;1.10;;
42144;SDS011;27813;43.516;11.890;2023-05-07T22:29:37;2.75;;;1.50;;
42144;SDS011;27813;43.516;11.890;2023-05-07T22:33:41;2.08;;;1.40;;
42144;SDS011;27813;43.516;11.890;2023-05-07T22:37:46;3.13;;;1.55;;
42144;SDS011;27813;43.516;11.890;2023-05-07T22:41:50;1.80;;;1.23;;
42144;SDS011;27813;43.516;11.890;2023-05-07T22:46:01;1.75;;;1.45;;
42144;SDS011;27813;43.516;11.890;2023-05-07T22:50:06;2.10;;;1.50;;
42144;SDS011;27813;43.516;11.890;2023-05-07T22:54:11;2.40;;;1.52;;
42144;SDS011;27813;43.516;11.890;2023-05-07T22:58:20;2.40;;;1.52;;
42144;SDS011;27813;43.516;11.890;2023-05-07T23:03:56;1.58;;;1.05;;
42144;SDS011;27813;43.516;11.890;2023-05-07T23:08:00;1.77;;;1.45;;
42144;SDS011;27813;43.516;11.890;2023-05-07T23:12:06;2.10;;;1.50;;
42144;SDS011;27813;43.516;11.890;2023-05-07T23:16:12;2.90;;;1.38;;
42144;SDS011;27813;43.516;11.890;2023-05-07T23:20:16;1.55;;;1.33;;
42144;SDS011;27813;43.516;11.890;2023-05-07T23:24:21;2.53;;;1.20;;
42144;SDS011;27813;43.516;11.890;2023-05-07T23:28:25;2.58;;;1.70;;
